sensor_id;sensor_type;location;lat;lon;timestamp;P1;durP1;ratioP1;P2;durP2;ratioP2
75446;SDS011;64024;55.820;37.574;2023-07-31T00:01:25;4.78;;;3.42;;
75446;SDS011;64024;55.820;37.574;2023-07-31T00:03:51;3.35;;;3.05;;
75446;SDS011;64024;55.820;37.574;2023-07-31T00:06:17;3.72;;;2.65;;
75446;SDS011;64024;55.820;37.574;2023-07-31T00:08:43;4.22;;;2.95;;
75446;SDS011;64024;55.820;37.574;2023-07-31T00:11:09;5.85;;;2.83;;
75446;SDS011;64024;55.820;37.574;2023-07-31T00:13:36;5.65;;;2.50;;
75446;SDS011;64024;55.820;37.574;2023-07-31T00:16:02;5.45;;;3.20;;
75446;SDS011;64024;55.820;37.574;2023-07-31T00:18:28;4.95;;;3.00;;
75446;SDS011;64024;55.820;37.574;2023-07-31T00:20:54;3.97;;;2.97;;
75446;SDS011;64024;55.820;37.574;2023-07-31T00:23:21;4.30;;;3.13;;
75446;SDS011;64024;55.820;37.574;2023-07-31T00:25:47;4.80;;;3.35;;
75446;SDS011;64024;55.820;37.574;2023-07-31T00:28:14;4.32;;;3.00;;
75446;SDS011;64024;55.820;37.574;2023-07-31T00:30:41;3.65;;;3.28;;
75446;SDS011;64024;55.820;37.574;2023-07-31T00:33:07;3.30;;;2.88;;
75446;SDS011;64024;55.820;37.574;2023-07-31T00:35:33;3.78;;;2.88;;
75446;SDS011;64024;55.820;37.574;2023-07-31T00:37:59;6.13;;;3.25;;
75446;SDS011;64024;55.820;37.574;2023-07-31T00:40:25;4.57;;;3.13;;
75446;SDS011;64024;55.820;37.574;2023-07-31T00:42:52;5.43;;;3.30;;
75446;SDS011;64024;55.820;37.574;2023-07-31T00:45:19;5.45;;;3.55;;
75446;SDS011;64024;55.820;37.574;2023-07-31T00:47:48;6.38;;;3.17;;
75446;SDS011;64024;55.820;37.574;2023-07-31T00:50:14;8.32;;;3.75;;
75446;SDS011;64024;55.820;37.574;2023-07-31T00:52:41;5.05;;;3.38;;
75446;SDS011;64024;55.820;37.574;2023-07-31T00:55:08;3.92;;;3.13;;
75446;SDS011;64024;55.820;37.574;2023-07-31T00:57:35;5.10;;;2.72;;
75446;SDS011;64024;55.820;37.574;2023-07-31T01:00:04;3.55;;;2.95;;
75446;SDS011;64024;55.820;37.574;2023-07-31T01:02:31;3.67;;;2.72;;
75446;SDS011;64024;55.820;37.574;2023-07-31T01:04:57;3.78;;;3.20;;
75446;SDS011;64024;55.820;37.574;2023-07-31T01:07:27;3.67;;;2.72;;
75446;SDS011;64024;55.820;37.574;2023-07-31T01:10:02;3.33;;;2.92;;
75446;SDS011;64024;55.820;37.574;2023-07-31T01:12:30;3.22;;;2.53;;
75446;SDS011;64024;55.820;37.574;2023-07-31T01:17:31;3.78;;;2.35;;
75446;SDS011;64024;55.820;37.574;2023-07-31T01:19:59;3.88;;;2.50;;
75446;SDS011;64024;55.820;37.574;2023-07-31T01:22:37;3.40;;;2.30;;
75446;SDS011;64024;55.820;37.574;2023-07-31T01:25:33;3.80;;;2.40;;
75446;SDS011;64024;55.820;37.574;2023-07-31T01:28:08;4.32;;;2.72;;
75446;SDS011;64024;55.820;37.574;2023-07-31T01:30:47;4.00;;;2.63;;
75446;SDS011;64024;55.820;37.574;2023-07-31T01:33:15;3.15;;;2.53;;
75446;SDS011;64024;55.820;37.574;2023-07-31T01:35:43;3.60;;;2.72;;
75446;SDS011;64024;55.820;37.574;2023-07-31T01:38:12;4.07;;;2.65;;
75446;SDS011;64024;55.820;37.574;2023-07-31T01:40:41;3.72;;;2.53;;
75446;SDS011;64024;55.820;37.574;2023-07-31T01:43:08;2.92;;;2.38;;
75446;SDS011;64024;55.820;37.574;2023-07-31T01:45:35;3.63;;;2.65;;
75446;SDS011;64024;55.820;37.574;2023-07-31T01:48:03;3.45;;;2.50;;
75446;SDS011;64024;55.820;37.574;2023-07-31T01:50:29;4.68;;;2.63;;
75446;SDS011;64024;55.820;37.574;2023-07-31T01:52:56;4.47;;;2.20;;
75446;SDS011;64024;55.820;37.574;2023-07-31T01:57:49;3.90;;;2.55;;
75446;SDS011;64024;55.820;37.574;2023-07-31T02:00:15;2.50;;;2.00;;
75446;SDS011;64024;55.820;37.574;2023-07-31T02:02:42;3.42;;;2.20;;
75446;SDS011;64024;55.820;37.574;2023-07-31T02:05:08;5.38;;;2.80;;
75446;SDS011;64024;55.820;37.574;2023-07-31T02:07:34;3.63;;;2.72;;
75446;SDS011;64024;55.820;37.574;2023-07-31T02:10:00;3.10;;;2.42;;
75446;SDS011;64024;55.820;37.574;2023-07-31T02:12:27;3.38;;;2.70;;
75446;SDS011;64024;55.820;37.574;2023-07-31T02:14:56;3.00;;;2.20;;
75446;SDS011;64024;55.820;37.574;2023-07-31T02:17:22;3.13;;;2.35;;
75446;SDS011;64024;55.820;37.574;2023-07-31T02:19:48;4.93;;;2.42;;
75446;SDS011;64024;55.820;37.574;2023-07-31T02:22:14;3.30;;;2.33;;
75446;SDS011;64024;55.820;37.574;2023-07-31T02:24:41;4.00;;;2.40;;
75446;SDS011;64024;55.820;37.574;2023-07-31T02:27:07;4.78;;;2.70;;
75446;SDS011;64024;55.820;37.574;2023-07-31T02:29:33;2.45;;;1.98;;
75446;SDS011;64024;55.820;37.574;2023-07-31T02:31:59;2.95;;;2.53;;
75446;SDS011;64024;55.820;37.574;2023-07-31T02:34:26;2.88;;;2.25;;
75446;SDS011;64024;55.820;37.574;2023-07-31T02:36:52;3.17;;;2.78;;
75446;SDS011;64024;55.820;37.574;2023-07-31T02:39:18;3.50;;;2.25;;
75446;SDS011;64024;55.820;37.574;2023-07-31T02:41:46;3.47;;;2.40;;
75446;SDS011;64024;55.820;37.574;2023-07-31T02:44:12;3.83;;;2.45;;
75446;SDS011;64024;55.820;37.574;2023-07-31T02:49:05;3.03;;;2.10;;
75446;SDS011;64024;55.820;37.574;2023-07-31T02:51:32;4.57;;;1.92;;
75446;SDS011;64024;55.820;37.574;2023-07-31T02:53:58;2.97;;;2.28;;
75446;SDS011;64024;55.820;37.574;2023-07-31T02:56:25;2.80;;;2.00;;
75446;SDS011;64024;55.820;37.574;2023-07-31T02:58:51;2.08;;;1.88;;
75446;SDS011;64024;55.820;37.574;2023-07-31T03:01:18;2.60;;;1.98;;
75446;SDS011;64024;55.820;37.574;2023-07-31T03:03:44;3.92;;;2.45;;
75446;SDS011;64024;55.820;37.574;2023-07-31T03:06:10;3.58;;;1.85;;
75446;SDS011;64024;55.820;37.574;2023-07-31T03:08:35;3.22;;;2.20;;
75446;SDS011;64024;55.820;37.574;2023-07-31T03:11:01;3.90;;;2.28;;
75446;SDS011;64024;55.820;37.574;2023-07-31T03:13:28;2.90;;;2.03;;
75446;SDS011;64024;55.820;37.574;2023-07-31T03:15:54;2.85;;;2.03;;
75446;SDS011;64024;55.820;37.574;2023-07-31T03:18:21;3.72;;;1.90;;
75446;SDS011;64024;55.820;37.574;2023-07-31T03:20:47;4.15;;;2.30;;
75446;SDS011;64024;55.820;37.574;2023-07-31T03:23:13;3.30;;;2.53;;
75446;SDS011;64024;55.820;37.574;2023-07-31T03:25:41;6.45;;;2.45;;
75446;SDS011;64024;55.820;37.574;2023-07-31T03:28:21;4.10;;;2.20;;
75446;SDS011;64024;55.820;37.574;2023-07-31T03:30:47;4.22;;;2.45;;
75446;SDS011;64024;55.820;37.574;2023-07-31T03:33:14;4.47;;;2.75;;
75446;SDS011;64024;55.820;37.574;2023-07-31T03:35:40;3.17;;;2.30;;
75446;SDS011;64024;55.820;37.574;2023-07-31T03:38:06;4.72;;;2.58;;
75446;SDS011;64024;55.820;37.574;2023-07-31T03:40:32;3.97;;;2.72;;
75446;SDS011;64024;55.820;37.574;2023-07-31T03:42:59;4.32;;;2.60;;
75446;SDS011;64024;55.820;37.574;2023-07-31T03:45:26;4.20;;;2.60;;
75446;SDS011;64024;55.820;37.574;2023-07-31T03:47:52;3.60;;;2.92;;
75446;SDS011;64024;55.820;37.574;2023-07-31T03:50:20;4.65;;;2.75;;
75446;SDS011;64024;55.820;37.574;2023-07-31T03:52:46;4.18;;;2.45;;
75446;SDS011;64024;55.820;37.574;2023-07-31T03:55:13;2.88;;;2.25;;
75446;SDS011;64024;55.820;37.574;2023-07-31T03:57:41;3.60;;;2.67;;
75446;SDS011;64024;55.820;37.574;2023-07-31T04:00:08;4.30;;;2.30;;
75446;SDS011;64024;55.820;37.574;2023-07-31T04:02:35;4.47;;;2.42;;
75446;SDS011;64024;55.820;37.574;2023-07-31T04:05:01;4.20;;;2.30;;
75446;SDS011;64024;55.820;37.574;2023-07-31T04:07:27;3.05;;;2.10;;
75446;SDS011;64024;55.820;37.574;2023-07-31T04:09:53;3.38;;;2.28;;
75446;SDS011;64024;55.820;37.574;2023-07-31T04:12:19;4.07;;;2.63;;
75446;SDS011;64024;55.820;37.574;2023-07-31T04:14:46;3.25;;;2.50;;
75446;SDS011;64024;55.820;37.574;2023-07-31T04:17:12;3.53;;;2.42;;
75446;SDS011;64024;55.820;37.574;2023-07-31T04:19:39;2.78;;;2.25;;
75446;SDS011;64024;55.820;37.574;2023-07-31T04:22:07;4.32;;;2.38;;
75446;SDS011;64024;55.820;37.574;2023-07-31T04:24:33;3.33;;;2.35;;
75446;SDS011;64024;55.820;37.574;2023-07-31T04:26:59;4.53;;;2.50;;
75446;SDS011;64024;55.820;37.574;2023-07-31T04:29:25;3.45;;;2.20;;
75446;SDS011;64024;55.820;37.574;2023-07-31T04:31:53;4.75;;;2.72;;
75446;SDS011;64024;55.820;37.574;2023-07-31T04:34:19;4.03;;;2.60;;
75446;SDS011;64024;55.820;37.574;2023-07-31T04:36:45;3.08;;;2.42;;
75446;SDS011;64024;55.820;37.574;2023-07-31T04:39:11;2.42;;;1.90;;
75446;SDS011;64024;55.820;37.574;2023-07-31T04:44:04;5.07;;;2.80;;
75446;SDS011;64024;55.820;37.574;2023-07-31T04:46:30;3.65;;;2.13;;
75446;SDS011;64024;55.820;37.574;2023-07-31T04:48:56;3.55;;;2.20;;
75446;SDS011;64024;55.820;37.574;2023-07-31T04:51:22;3.88;;;1.85;;
75446;SDS011;64024;55.820;37.574;2023-07-31T04:53:50;4.28;;;1.95;;
75446;SDS011;64024;55.820;37.574;2023-07-31T04:56:17;2.53;;;1.90;;
75446;SDS011;64024;55.820;37.574;2023-07-31T04:58:44;3.15;;;2.05;;
75446;SDS011;64024;55.820;37.574;2023-07-31T05:01:10;4.15;;;2.40;;
75446;SDS011;64024;55.820;37.574;2023-07-31T05:03:36;3.80;;;2.13;;
75446;SDS011;64024;55.820;37.574;2023-07-31T05:06:03;3.20;;;2.10;;
75446;SDS011;64024;55.820;37.574;2023-07-31T05:08:30;2.63;;;1.70;;
75446;SDS011;64024;55.820;37.574;2023-07-31T05:10:56;4.90;;;2.10;;
75446;SDS011;64024;55.820;37.574;2023-07-31T05:13:23;2.40;;;2.17;;
75446;SDS011;64024;55.820;37.574;2023-07-31T05:15:50;2.25;;;1.92;;
75446;SDS011;64024;55.820;37.574;2023-07-31T05:18:17;3.35;;;2.00;;
75446;SDS011;64024;55.820;37.574;2023-07-31T05:20:43;3.67;;;2.08;;
75446;SDS011;64024;55.820;37.574;2023-07-31T05:23:09;3.72;;;2.25;;
75446;SDS011;64024;55.820;37.574;2023-07-31T05:25:35;4.47;;;2.40;;
75446;SDS011;64024;55.820;37.574;2023-07-31T05:28:02;2.30;;;2.08;;
75446;SDS011;64024;55.820;37.574;2023-07-31T05:32:59;2.75;;;1.90;;
75446;SDS011;64024;55.820;37.574;2023-07-31T05:35:27;2.78;;;2.03;;
75446;SDS011;64024;55.820;37.574;2023-07-31T05:37:53;2.30;;;1.92;;
75446;SDS011;64024;55.820;37.574;2023-07-31T05:40:19;2.92;;;2.20;;
75446;SDS011;64024;55.820;37.574;2023-07-31T05:42:46;3.05;;;2.08;;
75446;SDS011;64024;55.820;37.574;2023-07-31T05:45:12;3.38;;;2.13;;
75446;SDS011;64024;55.820;37.574;2023-07-31T05:47:39;3.50;;;2.17;;
75446;SDS011;64024;55.820;37.574;2023-07-31T05:50:06;3.33;;;2.17;;
75446;SDS011;64024;55.820;37.574;2023-07-31T05:52:33;3.72;;;1.90;;
75446;SDS011;64024;55.820;37.574;2023-07-31T05:55:00;3.30;;;2.33;;
75446;SDS011;64024;55.820;37.574;2023-07-31T05:59:53;2.47;;;1.98;;
75446;SDS011;64024;55.820;37.574;2023-07-31T06:02:19;3.22;;;2.13;;
75446;SDS011;64024;55.820;37.574;2023-07-31T06:04:45;3.40;;;2.47;;
75446;SDS011;64024;55.820;37.574;2023-07-31T06:07:12;2.30;;;2.03;;
75446;SDS011;64024;55.820;37.574;2023-07-31T06:09:38;3.10;;;2.33;;
75446;SDS011;64024;55.820;37.574;2023-07-31T06:12:04;2.70;;;2.03;;
75446;SDS011;64024;55.820;37.574;2023-07-31T06:14:30;2.75;;;2.10;;
75446;SDS011;64024;55.820;37.574;2023-07-31T06:16:57;4.43;;;2.50;;
75446;SDS011;64024;55.820;37.574;2023-07-31T06:19:23;3.05;;;2.60;;
75446;SDS011;64024;55.820;37.574;2023-07-31T06:21:52;3.65;;;2.13;;
75446;SDS011;64024;55.820;37.574;2023-07-31T06:26:47;3.95;;;2.55;;
75446;SDS011;64024;55.820;37.574;2023-07-31T06:29:13;4.65;;;2.40;;
75446;SDS011;64024;55.820;37.574;2023-07-31T06:31:40;2.67;;;2.22;;
75446;SDS011;64024;55.820;37.574;2023-07-31T06:34:07;3.58;;;2.65;;
75446;SDS011;64024;55.820;37.574;2023-07-31T06:36:34;4.43;;;2.80;;
75446;SDS011;64024;55.820;37.574;2023-07-31T06:39:00;3.63;;;2.65;;
75446;SDS011;64024;55.820;37.574;2023-07-31T06:41:26;3.50;;;2.20;;
75446;SDS011;64024;55.820;37.574;2023-07-31T06:43:52;4.05;;;2.50;;
75446;SDS011;64024;55.820;37.574;2023-07-31T06:46:18;3.72;;;2.50;;
75446;SDS011;64024;55.820;37.574;2023-07-31T06:48:45;2.88;;;2.20;;
75446;SDS011;64024;55.820;37.574;2023-07-31T06:51:11;2.60;;;2.10;;
75446;SDS011;64024;55.820;37.574;2023-07-31T06:53:37;3.20;;;2.25;;
75446;SDS011;64024;55.820;37.574;2023-07-31T06:56:04;3.03;;;1.90;;
75446;SDS011;64024;55.820;37.574;2023-07-31T06:58:31;3.08;;;1.92;;
75446;SDS011;64024;55.820;37.574;2023-07-31T07:00:58;2.05;;;1.83;;
75446;SDS011;64024;55.820;37.574;2023-07-31T07:03:24;2.30;;;1.70;;
75446;SDS011;64024;55.820;37.574;2023-07-31T07:05:50;5.40;;;2.17;;
75446;SDS011;64024;55.820;37.574;2023-07-31T07:08:17;2.55;;;1.80;;
75446;SDS011;64024;55.820;37.574;2023-07-31T07:10:43;3.88;;;1.90;;
75446;SDS011;64024;55.820;37.574;2023-07-31T07:13:10;3.08;;;1.80;;
75446;SDS011;64024;55.820;37.574;2023-07-31T07:15:36;3.35;;;1.73;;
75446;SDS011;64024;55.820;37.574;2023-07-31T07:18:03;3.35;;;1.95;;
75446;SDS011;64024;55.820;37.574;2023-07-31T07:20:34;2.58;;;1.80;;
75446;SDS011;64024;55.820;37.574;2023-07-31T07:23:01;3.17;;;1.67;;
75446;SDS011;64024;55.820;37.574;2023-07-31T07:25:28;2.70;;;1.77;;
75446;SDS011;64024;55.820;37.574;2023-07-31T07:27:55;2.20;;;1.60;;
75446;SDS011;64024;55.820;37.574;2023-07-31T07:30:22;3.90;;;2.00;;
75446;SDS011;64024;55.820;37.574;2023-07-31T07:32:50;2.67;;;2.25;;
75446;SDS011;64024;55.820;37.574;2023-07-31T07:37:43;2.53;;;1.80;;
75446;SDS011;64024;55.820;37.574;2023-07-31T07:40:09;2.72;;;1.40;;
75446;SDS011;64024;55.820;37.574;2023-07-31T07:42:36;3.33;;;1.50;;
75446;SDS011;64024;55.820;37.574;2023-07-31T07:45:03;2.33;;;1.67;;
75446;SDS011;64024;55.820;37.574;2023-07-31T07:47:31;4.05;;;2.22;;
75446;SDS011;64024;55.820;37.574;2023-07-31T07:49:57;3.10;;;1.63;;
75446;SDS011;64024;55.820;37.574;2023-07-31T07:52:23;2.03;;;1.48;;
75446;SDS011;64024;55.820;37.574;2023-07-31T07:54:49;2.17;;;1.50;;
75446;SDS011;64024;55.820;37.574;2023-07-31T07:57:16;2.92;;;1.60;;
75446;SDS011;64024;55.820;37.574;2023-07-31T07:59:44;2.67;;;1.40;;
75446;SDS011;64024;55.820;37.574;2023-07-31T08:04:37;2.30;;;1.35;;
75446;SDS011;64024;55.820;37.574;2023-07-31T08:07:04;1.60;;;1.23;;
75446;SDS011;64024;55.820;37.574;2023-07-31T08:11:57;1.40;;;1.00;;
75446;SDS011;64024;55.820;37.574;2023-07-31T08:14:28;1.73;;;1.20;;
75446;SDS011;64024;55.820;37.574;2023-07-31T08:16:55;2.85;;;1.92;;
75446;SDS011;64024;55.820;37.574;2023-07-31T08:19:22;1.90;;;1.40;;
75446;SDS011;64024;55.820;37.574;2023-07-31T08:21:49;1.60;;;1.05;;
75446;SDS011;64024;55.820;37.574;2023-07-31T08:24:15;2.72;;;1.27;;
75446;SDS011;64024;55.820;37.574;2023-07-31T08:26:42;2.53;;;1.77;;
75446;SDS011;64024;55.820;37.574;2023-07-31T08:29:08;2.38;;;1.85;;
75446;SDS011;64024;55.820;37.574;2023-07-31T08:31:36;1.80;;;1.42;;
75446;SDS011;64024;55.820;37.574;2023-07-31T08:34:04;1.67;;;1.45;;
75446;SDS011;64024;55.820;37.574;2023-07-31T08:36:31;2.00;;;1.45;;
75446;SDS011;64024;55.820;37.574;2023-07-31T08:38:58;1.77;;;1.33;;
75446;SDS011;64024;55.820;37.574;2023-07-31T08:41:25;2.40;;;1.95;;
75446;SDS011;64024;55.820;37.574;2023-07-31T08:43:53;2.65;;;1.63;;
75446;SDS011;64024;55.820;37.574;2023-07-31T08:46:20;2.55;;;1.50;;
75446;SDS011;64024;55.820;37.574;2023-07-31T08:48:48;1.70;;;1.33;;
75446;SDS011;64024;55.820;37.574;2023-07-31T08:51:17;3.65;;;2.03;;
75446;SDS011;64024;55.820;37.574;2023-07-31T08:53:45;2.05;;;1.65;;
75446;SDS011;64024;55.820;37.574;2023-07-31T08:56:12;2.00;;;1.40;;
75446;SDS011;64024;55.820;37.574;2023-07-31T08:58:42;2.80;;;1.70;;
75446;SDS011;64024;55.820;37.574;2023-07-31T09:01:10;1.75;;;1.50;;
75446;SDS011;64024;55.820;37.574;2023-07-31T09:03:37;1.92;;;1.27;;
75446;SDS011;64024;55.820;37.574;2023-07-31T09:06:05;2.50;;;1.60;;
75446;SDS011;64024;55.820;37.574;2023-07-31T09:08:33;2.30;;;1.60;;
75446;SDS011;64024;55.820;37.574;2023-07-31T09:11:02;2.00;;;1.42;;
75446;SDS011;64024;55.820;37.574;2023-07-31T09:13:30;3.10;;;1.52;;
75446;SDS011;64024;55.820;37.574;2023-07-31T09:15:58;2.42;;;1.90;;
75446;SDS011;64024;55.820;37.574;2023-07-31T09:18:24;2.95;;;1.40;;
75446;SDS011;64024;55.820;37.574;2023-07-31T09:21:00;2.60;;;1.85;;
75446;SDS011;64024;55.820;37.574;2023-07-31T09:23:39;2.20;;;1.65;;
75446;SDS011;64024;55.820;37.574;2023-07-31T09:26:08;1.92;;;1.38;;
75446;SDS011;64024;55.820;37.574;2023-07-31T09:28:34;3.10;;;1.50;;
75446;SDS011;64024;55.820;37.574;2023-07-31T09:31:01;2.92;;;1.88;;
75446;SDS011;64024;55.820;37.574;2023-07-31T09:33:27;2.30;;;1.85;;
75446;SDS011;64024;55.820;37.574;2023-07-31T09:35:58;2.33;;;1.80;;
75446;SDS011;64024;55.820;37.574;2023-07-31T09:38:25;2.55;;;1.83;;
75446;SDS011;64024;55.820;37.574;2023-07-31T09:43:19;2.17;;;1.63;;
75446;SDS011;64024;55.820;37.574;2023-07-31T09:45:46;2.95;;;1.85;;
75446;SDS011;64024;55.820;37.574;2023-07-31T09:48:17;1.90;;;1.52;;
75446;SDS011;64024;55.820;37.574;2023-07-31T09:50:45;2.00;;;1.42;;
75446;SDS011;64024;55.820;37.574;2023-07-31T09:53:13;2.20;;;1.80;;
75446;SDS011;64024;55.820;37.574;2023-07-31T09:55:40;4.13;;;1.80;;
75446;SDS011;64024;55.820;37.574;2023-07-31T09:58:12;2.72;;;1.50;;
75446;SDS011;64024;55.820;37.574;2023-07-31T10:00:39;2.30;;;1.83;;
75446;SDS011;64024;55.820;37.574;2023-07-31T10:03:07;2.50;;;1.95;;
75446;SDS011;64024;55.820;37.574;2023-07-31T10:05:35;3.20;;;1.83;;
75446;SDS011;64024;55.820;37.574;2023-07-31T10:08:01;2.80;;;2.20;;
75446;SDS011;64024;55.820;37.574;2023-07-31T10:10:31;4.13;;;1.70;;
75446;SDS011;64024;55.820;37.574;2023-07-31T10:12:57;2.92;;;1.77;;
75446;SDS011;64024;55.820;37.574;2023-07-31T10:15:25;2.03;;;1.70;;
75446;SDS011;64024;55.820;37.574;2023-07-31T10:17:51;2.95;;;1.70;;
75446;SDS011;64024;55.820;37.574;2023-07-31T10:20:19;3.20;;;1.70;;
75446;SDS011;64024;55.820;37.574;2023-07-31T10:22:46;1.90;;;1.40;;
75446;SDS011;64024;55.820;37.574;2023-07-31T10:25:17;4.03;;;1.80;;
75446;SDS011;64024;55.820;37.574;2023-07-31T10:27:45;2.55;;;1.60;;
75446;SDS011;64024;55.820;37.574;2023-07-31T10:30:17;2.35;;;1.95;;
75446;SDS011;64024;55.820;37.574;2023-07-31T10:32:47;2.55;;;2.20;;
75446;SDS011;64024;55.820;37.574;2023-07-31T10:35:16;3.47;;;1.60;;
75446;SDS011;64024;55.820;37.574;2023-07-31T10:37:43;2.97;;;1.67;;
75446;SDS011;64024;55.820;37.574;2023-07-31T10:40:15;2.65;;;2.15;;
75446;SDS011;64024;55.820;37.574;2023-07-31T10:45:17;2.20;;;1.58;;
75446;SDS011;64024;55.820;37.574;2023-07-31T10:48:13;2.30;;;1.70;;
75446;SDS011;64024;55.820;37.574;2023-07-31T10:50:48;2.95;;;1.80;;
75446;SDS011;64024;55.820;37.574;2023-07-31T10:53:27;3.42;;;1.80;;
75446;SDS011;64024;55.820;37.574;2023-07-31T10:56:03;2.30;;;2.10;;
75446;SDS011;64024;55.820;37.574;2023-07-31T10:58:30;2.67;;;1.60;;
75446;SDS011;64024;55.820;37.574;2023-07-31T11:00:59;2.33;;;1.75;;
75446;SDS011;64024;55.820;37.574;2023-07-31T11:06:07;2.17;;;1.77;;
75446;SDS011;64024;55.820;37.574;2023-07-31T11:08:34;2.25;;;1.80;;
75446;SDS011;64024;55.820;37.574;2023-07-31T11:11:07;3.10;;;1.80;;
75446;SDS011;64024;55.820;37.574;2023-07-31T11:16:25;2.40;;;1.75;;
75446;SDS011;64024;55.820;37.574;2023-07-31T11:18:52;2.28;;;1.80;;
75446;SDS011;64024;55.820;37.574;2023-07-31T11:21:22;2.40;;;1.48;;
75446;SDS011;64024;55.820;37.574;2023-07-31T11:23:53;2.15;;;1.90;;
75446;SDS011;64024;55.820;37.574;2023-07-31T11:26:23;2.58;;;1.77;;
75446;SDS011;64024;55.820;37.574;2023-07-31T11:31:17;2.85;;;2.00;;
75446;SDS011;64024;55.820;37.574;2023-07-31T11:33:44;2.75;;;2.20;;
75446;SDS011;64024;55.820;37.574;2023-07-31T11:36:20;2.42;;;2.03;;
75446;SDS011;64024;55.820;37.574;2023-07-31T11:38:46;4.00;;;2.42;;
75446;SDS011;64024;55.820;37.574;2023-07-31T11:41:13;2.45;;;1.95;;
75446;SDS011;64024;55.820;37.574;2023-07-31T11:43:41;1.90;;;1.50;;
75446;SDS011;64024;55.820;37.574;2023-07-31T11:46:09;2.63;;;1.80;;
75446;SDS011;64024;55.820;37.574;2023-07-31T11:48:36;2.50;;;1.75;;
75446;SDS011;64024;55.820;37.574;2023-07-31T11:51:04;2.80;;;2.20;;
75446;SDS011;64024;55.820;37.574;2023-07-31T11:53:33;2.55;;;2.00;;
75446;SDS011;64024;55.820;37.574;2023-07-31T11:56:02;1.80;;;1.42;;
75446;SDS011;64024;55.820;37.574;2023-07-31T11:58:30;2.55;;;1.77;;
75446;SDS011;64024;55.820;37.574;2023-07-31T12:00:57;2.08;;;1.67;;
75446;SDS011;64024;55.820;37.574;2023-07-31T12:03:25;3.35;;;1.88;;
75446;SDS011;64024;55.820;37.574;2023-07-31T12:05:53;1.90;;;1.55;;
75446;SDS011;64024;55.820;37.574;2023-07-31T12:08:20;2.55;;;1.98;;
75446;SDS011;64024;55.820;37.574;2023-07-31T12:10:52;2.35;;;1.85;;
75446;SDS011;64024;55.820;37.574;2023-07-31T12:13:21;2.67;;;2.35;;
75446;SDS011;64024;55.820;37.574;2023-07-31T12:15:47;1.98;;;1.58;;
75446;SDS011;64024;55.820;37.574;2023-07-31T12:18:19;2.15;;;1.80;;
75446;SDS011;64024;55.820;37.574;2023-07-31T12:20:49;2.35;;;1.70;;
75446;SDS011;64024;55.820;37.574;2023-07-31T12:23:20;2.65;;;1.80;;
75446;SDS011;64024;55.820;37.574;2023-07-31T12:28:40;3.47;;;2.03;;
75446;SDS011;64024;55.820;37.574;2023-07-31T12:31:14;3.42;;;2.20;;
75446;SDS011;64024;55.820;37.574;2023-07-31T12:33:45;2.83;;;1.98;;
75446;SDS011;64024;55.820;37.574;2023-07-31T12:36:14;3.10;;;2.28;;
75446;SDS011;64024;55.820;37.574;2023-07-31T12:38:42;3.28;;;2.15;;
75446;SDS011;64024;55.820;37.574;2023-07-31T12:41:10;5.15;;;2.35;;
75446;SDS011;64024;55.820;37.574;2023-07-31T12:43:38;3.53;;;2.15;;
75446;SDS011;64024;55.820;37.574;2023-07-31T12:46:05;3.05;;;2.05;;
75446;SDS011;64024;55.820;37.574;2023-07-31T12:48:33;3.45;;;2.25;;
75446;SDS011;64024;55.820;37.574;2023-07-31T12:51:00;2.83;;;2.10;;
75446;SDS011;64024;55.820;37.574;2023-07-31T12:53:28;3.13;;;2.15;;
75446;SDS011;64024;55.820;37.574;2023-07-31T12:55:54;2.97;;;2.38;;
75446;SDS011;64024;55.820;37.574;2023-07-31T12:58:21;3.88;;;2.13;;
75446;SDS011;64024;55.820;37.574;2023-07-31T13:00:48;3.00;;;2.22;;
75446;SDS011;64024;55.820;37.574;2023-07-31T13:03:14;2.85;;;2.60;;
75446;SDS011;64024;55.820;37.574;2023-07-31T13:05:40;2.85;;;2.35;;
75446;SDS011;64024;55.820;37.574;2023-07-31T13:08:07;6.28;;;2.80;;
75446;SDS011;64024;55.820;37.574;2023-07-31T13:10:33;2.65;;;2.38;;
75446;SDS011;64024;55.820;37.574;2023-07-31T13:12:58;2.95;;;2.35;;
75446;SDS011;64024;55.820;37.574;2023-07-31T13:15:25;2.63;;;2.00;;
75446;SDS011;64024;55.820;37.574;2023-07-31T13:17:51;2.70;;;2.10;;
75446;SDS011;64024;55.820;37.574;2023-07-31T13:20:17;3.88;;;2.22;;
75446;SDS011;64024;55.820;37.574;2023-07-31T13:22:43;2.80;;;2.08;;
75446;SDS011;64024;55.820;37.574;2023-07-31T13:25:09;3.35;;;2.00;;
75446;SDS011;64024;55.820;37.574;2023-07-31T13:27:35;2.80;;;1.80;;
75446;SDS011;64024;55.820;37.574;2023-07-31T13:30:02;4.22;;;2.33;;
75446;SDS011;64024;55.820;37.574;2023-07-31T13:32:29;2.45;;;2.15;;
75446;SDS011;64024;55.820;37.574;2023-07-31T13:34:55;3.13;;;2.08;;
75446;SDS011;64024;55.820;37.574;2023-07-31T13:37:21;2.33;;;2.05;;
75446;SDS011;64024;55.820;37.574;2023-07-31T13:39:47;2.42;;;2.15;;
75446;SDS011;64024;55.820;37.574;2023-07-31T13:42:14;2.60;;;1.92;;
75446;SDS011;64024;55.820;37.574;2023-07-31T13:44:41;4.57;;;2.30;;
75446;SDS011;64024;55.820;37.574;2023-07-31T13:47:08;3.42;;;2.20;;
75446;SDS011;64024;55.820;37.574;2023-07-31T13:49:35;3.15;;;2.33;;
75446;SDS011;64024;55.820;37.574;2023-07-31T13:52:04;4.28;;;2.45;;
75446;SDS011;64024;55.820;37.574;2023-07-31T13:54:30;2.63;;;2.20;;
75446;SDS011;64024;55.820;37.574;2023-07-31T13:56:57;2.72;;;2.53;;
75446;SDS011;64024;55.820;37.574;2023-07-31T13:59:24;3.42;;;2.40;;
75446;SDS011;64024;55.820;37.574;2023-07-31T14:01:50;3.10;;;2.08;;
75446;SDS011;64024;55.820;37.574;2023-07-31T14:04:16;3.00;;;2.15;;
75446;SDS011;64024;55.820;37.574;2023-07-31T14:06:45;3.20;;;2.60;;
75446;SDS011;64024;55.820;37.574;2023-07-31T14:09:16;3.20;;;2.00;;
75446;SDS011;64024;55.820;37.574;2023-07-31T14:11:43;4.93;;;2.50;;
75446;SDS011;64024;55.820;37.574;2023-07-31T14:14:09;2.60;;;2.20;;
75446;SDS011;64024;55.820;37.574;2023-07-31T14:16:38;4.22;;;2.70;;
75446;SDS011;64024;55.820;37.574;2023-07-31T14:19:05;3.05;;;2.50;;
75446;SDS011;64024;55.820;37.574;2023-07-31T14:21:33;3.78;;;2.42;;
75446;SDS011;64024;55.820;37.574;2023-07-31T14:24:00;2.80;;;2.45;;
75446;SDS011;64024;55.820;37.574;2023-07-31T14:26:27;3.10;;;2.05;;
75446;SDS011;64024;55.820;37.574;2023-07-31T14:28:58;4.13;;;2.67;;
75446;SDS011;64024;55.820;37.574;2023-07-31T14:33:51;2.50;;;1.90;;
75446;SDS011;64024;55.820;37.574;2023-07-31T14:36:17;2.50;;;1.80;;
75446;SDS011;64024;55.820;37.574;2023-07-31T14:38:43;4.10;;;2.17;;
75446;SDS011;64024;55.820;37.574;2023-07-31T14:41:10;3.60;;;1.92;;
75446;SDS011;64024;55.820;37.574;2023-07-31T14:43:36;2.85;;;2.00;;
75446;SDS011;64024;55.820;37.574;2023-07-31T14:46:02;2.67;;;2.10;;
75446;SDS011;64024;55.820;37.574;2023-07-31T14:48:28;4.70;;;2.42;;
75446;SDS011;64024;55.820;37.574;2023-07-31T14:50:56;3.38;;;2.70;;
75446;SDS011;64024;55.820;37.574;2023-07-31T14:53:22;3.13;;;2.28;;
75446;SDS011;64024;55.820;37.574;2023-07-31T14:55:48;3.65;;;2.22;;
75446;SDS011;64024;55.820;37.574;2023-07-31T14:58:15;2.80;;;2.22;;
75446;SDS011;64024;55.820;37.574;2023-07-31T15:00:42;3.35;;;2.40;;
75446;SDS011;64024;55.820;37.574;2023-07-31T15:05:35;2.60;;;2.40;;
75446;SDS011;64024;55.820;37.574;2023-07-31T15:08:01;2.90;;;2.00;;
75446;SDS011;64024;55.820;37.574;2023-07-31T15:10:27;3.38;;;2.40;;
75446;SDS011;64024;55.820;37.574;2023-07-31T15:15:20;3.17;;;1.80;;
75446;SDS011;64024;55.820;37.574;2023-07-31T15:17:49;3.22;;;2.53;;
75446;SDS011;64024;55.820;37.574;2023-07-31T15:20:16;3.05;;;2.10;;
75446;SDS011;64024;55.820;37.574;2023-07-31T15:22:42;2.45;;;2.05;;